createdAt,value
2023-02-27T00:04:54.471Z,100.35
2023-02-27T00:11:56.039Z,98.43
2023-02-27T00:19:01.135Z,96.63
2023-02-27T00:26:02.822Z,96.78
2023-02-27T00:33:04.485Z,99.00
2023-02-27T00:40:08.537Z,98.70
2023-02-27T00:47:10.120Z,98.68
2023-02-27T00:54:14.423Z,100.55
2023-02-27T01:01:16.140Z,98.60
2023-02-27T01:08:27.202Z,103.47
2023-02-27T01:15:28.879Z,111.22
2023-02-27T01:22:30.668Z,99.25
2023-02-27T01:29:32.281Z,98.35
2023-02-27T01:36:33.824Z,96.47
2023-02-27T01:43:55.625Z,100.78
2023-02-27T01:51:15.344Z,101.28
2023-02-27T01:58:17.069Z,102.18
2023-02-27T02:05:19.287Z,100.18
2023-02-27T02:12:22.513Z,99.00
2023-02-27T02:19:39.318Z,102.45
2023-02-27T02:27:03.717Z,109.13
2023-02-27T02:34:39.955Z,107.80
2023-02-27T02:41:53.769Z,113.93
2023-02-27T02:49:10.758Z,121.55
2023-02-27T02:56:18.370Z,121.82
2023-02-27T03:04:19.058Z,125.95
2023-02-27T03:11:22.329Z,121.57
2023-02-27T03:18:27.211Z,121.63
2023-02-27T03:25:28.882Z,120.97
2023-02-27T03:32:49.302Z,122.15
2023-02-27T03:40:35.509Z,119.68
2023-02-27T03:47:41.093Z,113.15
2023-02-27T03:54:54.018Z,111.55
2023-02-27T04:01:55.878Z,108.55
2023-02-27T04:09:11.364Z,110.55
2023-02-27T04:16:31.338Z,108.90
2023-02-27T04:23:33.098Z,101.20
2023-02-27T04:30:54.779Z,137.68
2023-02-27T04:38:02.618Z,113.50
2023-02-27T04:45:06.265Z,104.07
2023-02-27T04:52:22.417Z,107.15
2023-02-27T04:59:36.091Z,97.60
2023-02-27T05:06:38.294Z,113.88
2023-02-27T05:13:49.235Z,116.70
2023-02-27T05:21:05.942Z,115.93
2023-02-27T05:28:10.637Z,120.38
2023-02-27T05:35:30.910Z,121.28
2023-02-27T05:42:35.755Z,124.75
2023-02-27T05:49:42.435Z,130.40
2023-02-27T05:56:44.025Z,128.65
2023-02-27T06:03:45.660Z,121.75
2023-02-27T06:10:48.649Z,129.20
2023-02-27T06:17:50.317Z,132.43
2023-02-27T06:24:51.882Z,137.52
2023-02-27T06:31:53.637Z,158.95
2023-02-27T06:38:55.427Z,157.38
2023-02-27T06:45:57.405Z,124.95
2023-02-27T06:52:59.060Z,117.07
2023-02-27T07:00:00.587Z,119.93
2023-02-27T07:07:36.065Z,120.63
2023-02-27T07:14:23.676Z,126.50
2023-02-27T07:21:25.383Z,122.00
2023-02-27T07:28:27.306Z,129.23
2023-02-27T07:35:28.935Z,118.88
2023-02-27T07:42:30.535Z,130.38
2023-02-27T07:49:32.065Z,127.18
2023-02-27T07:56:34.178Z,131.52
2023-02-27T08:03:35.783Z,142.80
2023-02-27T08:10:37.318Z,123.93
2023-02-27T08:17:38.885Z,147.73
2023-02-27T08:24:40.513Z,58.25
2023-02-27T08:31:42.112Z,50.75
2023-02-27T08:38:43.739Z,51.85
2023-02-27T08:45:47.074Z,57.10
2023-02-27T08:52:51.190Z,61.90
2023-02-27T08:59:52.741Z,65.85
2023-02-27T09:06:54.348Z,68.95
2023-02-27T09:13:55.977Z,72.80
2023-02-27T09:20:57.581Z,59.70
2023-02-27T09:27:59.148Z,68.82
2023-02-27T09:35:00.793Z,52.63
2023-02-27T09:42:06.977Z,76.40
2023-02-27T09:49:09.578Z,69.28
2023-02-27T09:56:21.375Z,73.35
2023-02-27T10:03:58.422Z,69.03
2023-02-27T10:11:02.447Z,73.97
2023-02-27T10:18:25.378Z,112.22
2023-02-27T10:25:32.053Z,111.05
2023-02-27T10:32:34.229Z,97.97
2023-02-27T10:39:55.129Z,76.10
2023-02-27T10:46:56.712Z,71.30
2023-02-27T10:54:20.348Z,90.57
2023-02-27T11:01:22.366Z,105.93
2023-02-27T11:08:28.962Z,46.10
2023-02-27T11:15:35.384Z,23.25
2023-02-27T11:22:36.974Z,14.20
2023-02-27T11:29:39.025Z,15.20
2023-02-27T11:36:41.880Z,17.98
2023-02-27T11:43:50.722Z,17.10
2023-02-27T11:50:58.236Z,37.42
2023-02-27T11:58:12.029Z,74.28
2023-02-27T12:05:32.381Z,24.30
2023-02-27T12:12:50.739Z,28.95
2023-02-27T12:20:00.908Z,73.40
2023-02-27T12:27:16.458Z,52.05
2023-02-27T12:34:35.693Z,10.77
2023-02-27T12:42:04.680Z,13.75
2023-02-27T12:49:30.570Z,12.90
2023-02-27T12:57:04.238Z,17.25
2023-02-27T13:04:23.732Z,17.60
2023-02-27T13:11:44.456Z,21.58
2023-02-27T13:25:58.050Z,46.20
2023-02-27T13:33:14.725Z,44.20
2023-02-27T13:40:38.598Z,36.38
2023-02-27T13:47:41.995Z,32.83
2023-02-27T13:54:43.641Z,39.28
2023-02-27T14:02:16.759Z,40.95
2023-02-27T14:09:20.821Z,58.30
2023-02-27T14:16:37.707Z,53.83
2023-02-27T14:23:39.267Z,33.90
2023-02-27T14:31:06.091Z,29.63
2023-02-27T14:38:09.777Z,43.80
2023-02-27T14:45:17.296Z,106.85
2023-02-27T14:52:25.428Z,109.43
2023-02-27T14:59:33.292Z,98.00
2023-02-27T15:06:37.113Z,114.07
2023-02-27T15:13:39.181Z,105.18
2023-02-27T15:20:40.703Z,110.97
2023-02-27T15:27:42.362Z,81.63
2023-02-27T15:34:44.059Z,100.53
2023-02-27T15:41:56.014Z,107.07
2023-02-27T15:48:57.639Z,89.38
2023-02-27T15:56:00.886Z,95.50
2023-02-27T16:03:03.262Z,108.50
2023-02-27T16:10:08.045Z,85.07
2023-02-27T16:17:51.908Z,98.40
2023-02-27T16:24:54.471Z,93.47
2023-02-27T16:31:56.412Z,100.55
2023-02-27T16:38:58.035Z,82.82
2023-02-27T16:45:59.627Z,89.78
2023-02-27T16:53:01.255Z,102.45
2023-02-27T17:00:07.417Z,108.03
2023-02-27T17:07:12.313Z,99.78
2023-02-27T17:14:13.916Z,93.93
2023-02-27T17:21:15.525Z,94.03
2023-02-27T17:28:17.118Z,102.63
2023-02-27T17:35:18.676Z,102.45
2023-02-27T17:42:20.296Z,89.72
2023-02-27T17:49:22.267Z,106.28
2023-02-27T17:56:24.139Z,116.60
2023-02-27T18:03:25.737Z,122.15
2023-02-27T18:10:27.297Z,36.13
2023-02-27T18:17:28.856Z,30.88
2023-02-27T18:24:30.441Z,35.00
2023-02-27T18:31:34.244Z,35.20
2023-02-27T18:38:35.846Z,28.90
2023-02-27T18:45:37.457Z,40.92
2023-02-27T18:52:39.042Z,35.13
2023-02-27T18:59:41.460Z,114.95
2023-02-27T19:06:43.130Z,47.67
2023-02-27T19:13:44.816Z,79.80
2023-02-27T19:20:46.424Z,72.90
2023-02-27T19:27:53.623Z,67.72
2023-02-27T19:34:55.147Z,75.43
2023-02-27T19:41:56.676Z,57.63
2023-02-27T19:49:00.186Z,54.75
2023-02-27T19:56:06.618Z,67.72
2023-02-27T20:03:08.207Z,74.18
2023-02-27T20:10:10.778Z,66.63
2023-02-27T20:17:12.597Z,75.10
2023-02-27T20:24:14.610Z,69.28
2023-02-27T20:31:16.663Z,67.63
2023-02-27T20:38:19.854Z,61.78
2023-02-27T20:45:21.503Z,65.38
2023-02-27T20:52:23.161Z,63.38
2023-02-27T20:59:25.491Z,67.30
2023-02-27T21:06:27.086Z,68.07
2023-02-27T21:13:28.733Z,69.25
2023-02-27T21:20:30.606Z,70.93
2023-02-27T21:27:33.262Z,73.88
2023-02-27T21:34:35.004Z,76.47
2023-02-27T21:41:36.646Z,85.82
2023-02-27T21:48:38.292Z,92.32
2023-02-27T21:55:39.890Z,95.15
2023-02-27T22:02:41.570Z,90.95
2023-02-27T22:09:43.230Z,90.97
2023-02-27T22:16:44.840Z,92.45
2023-02-27T22:23:46.537Z,92.30
2023-02-27T22:30:49.158Z,96.22
2023-02-27T22:37:50.906Z,97.85
2023-02-27T22:44:52.527Z,96.07
2023-02-27T22:51:54.323Z,95.85
2023-02-27T22:58:55.866Z,98.95
2023-02-27T23:05:57.458Z,85.55
2023-02-27T23:12:59.036Z,94.15
2023-02-27T23:20:00.581Z,104.97
2023-02-27T23:27:19.594Z,97.07
2023-02-27T23:34:26.617Z,107.68
2023-02-27T23:41:28.463Z,104.57
2023-02-27T23:48:30.205Z,101.07
2023-02-27T23:55:33.358Z,106.45
